createdAt,value
2024-05-09T00:00:57.419Z,47.40
2024-05-09T00:01:57.423Z,46.90
2024-05-09T00:02:57.469Z,49.30
2024-05-09T00:03:57.475Z,51.70
2024-05-09T00:04:57.452Z,51.10
2024-05-09T00:05:57.369Z,54.70
2024-05-09T00:06:57.407Z,56.70
2024-05-09T00:07:57.324Z,55.60
2024-05-09T00:08:57.320Z,55.20
2024-05-09T00:09:57.327Z,53.90
2024-05-09T00:10:57.435Z,55.40
2024-05-09T00:11:57.343Z,54.50
2024-05-09T00:12:57.290Z,54.90
2024-05-09T00:13:57.809Z,56.80
2024-05-09T00:14:57.222Z,57.50
2024-05-09T00:15:57.211Z,56.80
2024-05-09T00:16:57.229Z,57.60
2024-05-09T00:17:57.364Z,59.20
2024-05-09T00:18:57.225Z,58.20
2024-05-09T00:19:57.182Z,59.70
2024-05-09T00:20:57.158Z,58.80
2024-05-09T00:21:57.106Z,60.50
2024-05-09T00:22:57.163Z,61.40
2024-05-09T00:23:57.089Z,61.20
2024-05-09T00:24:57.087Z,60.80
2024-05-09T00:25:57.110Z,62.70
2024-05-09T00:26:57.108Z,63.00
2024-05-09T00:27:57.210Z,62.40
2024-05-09T00:28:57.102Z,62.80
2024-05-09T00:29:57.028Z,62.40
2024-05-09T00:30:56.990Z,63.20
2024-05-09T00:31:57.061Z,63.20
2024-05-09T00:32:57.064Z,62.70
2024-05-09T00:33:57.122Z,63.20
2024-05-09T00:34:57.008Z,63.60
2024-05-09T00:35:56.945Z,61.80
2024-05-09T00:36:56.932Z,61.80
2024-05-09T00:37:56.973Z,63.00
2024-05-09T00:38:56.892Z,61.70
2024-05-09T00:39:56.933Z,61.20
2024-05-09T00:40:56.929Z,62.80
2024-05-09T00:41:56.929Z,61.80
2024-05-09T00:42:56.861Z,61.60
2024-05-09T00:43:56.935Z,62.00
2024-05-09T00:44:56.829Z,61.40
2024-05-09T00:45:56.882Z,63.20
2024-05-09T00:46:56.840Z,63.70
2024-05-09T00:47:57.032Z,64.90
2024-05-09T00:48:56.979Z,63.50
2024-05-09T00:49:56.787Z,65.00
2024-05-09T00:50:56.771Z,65.80
2024-05-09T00:51:56.727Z,66.60
2024-05-09T00:52:56.783Z,65.90
2024-05-09T00:53:56.715Z,67.60
2024-05-09T00:54:56.724Z,65.30
2024-05-09T00:55:56.727Z,67.20
2024-05-09T00:56:56.846Z,70.20
2024-05-09T00:57:56.656Z,69.50
2024-05-09T00:58:56.661Z,67.70
2024-05-09T00:59:56.674Z,66.50
2024-05-09T01:00:56.652Z,67.00
2024-05-09T01:01:56.784Z,69.50
2024-05-09T01:02:56.690Z,66.00
2024-05-09T01:03:56.668Z,63.20
2024-05-09T01:04:56.730Z,64.70
2024-05-09T01:05:56.747Z,63.70
2024-05-09T01:06:56.531Z,65.40
2024-05-09T01:07:56.556Z,64.80
2024-05-09T01:08:56.495Z,65.30
2024-05-09T01:09:56.543Z,63.80
2024-05-09T01:10:56.636Z,65.40
2024-05-09T01:11:56.582Z,69.20
2024-05-09T01:12:56.495Z,70.80
2024-05-09T01:13:56.509Z,70.00
2024-05-09T01:14:56.454Z,71.10
2024-05-09T01:15:56.403Z,70.70
2024-05-09T01:16:56.500Z,71.90
2024-05-09T01:17:56.921Z,74.30
2024-05-09T01:18:56.555Z,73.40
2024-05-09T01:19:56.407Z,74.80
2024-05-09T01:20:56.360Z,74.20
2024-05-09T01:21:56.385Z,75.60
2024-05-09T01:22:56.361Z,78.00
2024-05-09T01:23:56.348Z,77.90
2024-05-09T01:24:56.363Z,79.50
2024-05-09T01:25:56.350Z,79.60
2024-05-09T01:26:56.322Z,77.90
2024-05-09T01:27:56.250Z,74.80
2024-05-09T01:28:56.334Z,75.20
2024-05-09T01:29:56.305Z,75.40
2024-05-09T01:30:56.189Z,76.60
2024-05-09T01:31:56.247Z,75.20
2024-05-09T01:32:56.430Z,75.60
2024-05-09T01:33:56.438Z,78.20
2024-05-09T01:34:56.190Z,77.20
2024-05-09T01:35:56.135Z,75.80
2024-05-09T01:36:56.131Z,75.90
2024-05-09T01:37:56.404Z,72.10
2024-05-09T01:38:56.112Z,73.70
2024-05-09T01:39:56.081Z,71.80
2024-05-09T01:40:56.409Z,73.70
2024-05-09T01:41:56.049Z,73.50
2024-05-09T01:42:56.057Z,74.60
2024-05-09T01:43:56.100Z,73.10
2024-05-09T01:44:56.039Z,73.60
2024-05-09T01:45:56.478Z,73.80
2024-05-09T01:46:56.067Z,72.70
2024-05-09T01:47:56.363Z,71.50
2024-05-09T01:48:56.020Z,72.50
2024-05-09T01:49:56.037Z,70.00
2024-05-09T01:50:55.975Z,73.30
2024-05-09T01:51:55.969Z,74.20
2024-05-09T01:52:55.961Z,77.10
2024-05-09T01:53:55.938Z,79.40
2024-05-09T01:54:55.954Z,78.90
2024-05-09T01:55:55.890Z,79.10
2024-05-09T01:56:55.874Z,80.30
2024-05-09T01:57:55.846Z,79.30
2024-05-09T01:58:55.878Z,80.00
2024-05-09T01:59:55.817Z,80.40
2024-05-09T02:00:55.874Z,81.20
2024-05-09T02:01:57.709Z,78.50
2024-05-09T02:02:55.852Z,80.20
2024-05-09T02:03:55.944Z,83.60
2024-05-09T02:04:55.883Z,85.30
2024-05-09T02:05:55.805Z,86.50
2024-05-09T02:06:55.773Z,84.30
2024-05-09T02:07:55.870Z,81.10
2024-05-09T02:08:56.091Z,78.60
2024-05-09T02:09:55.675Z,77.60
2024-05-09T02:10:55.837Z,77.30
2024-05-09T02:11:55.773Z,76.10
2024-05-09T02:12:55.691Z,75.00
2024-05-09T02:13:55.631Z,75.80
2024-05-09T02:14:55.669Z,74.40
2024-05-09T02:15:55.636Z,75.80
2024-05-09T02:16:55.612Z,76.90
2024-05-09T02:17:55.769Z,77.90
2024-05-09T02:18:55.636Z,74.60
2024-05-09T02:19:55.649Z,78.10
2024-05-09T02:20:55.622Z,79.60
2024-05-09T02:21:55.528Z,83.50
2024-05-09T02:22:55.516Z,84.30
2024-05-09T02:23:55.524Z,83.50
2024-05-09T02:24:55.501Z,81.30
2024-05-09T02:25:55.554Z,84.10
2024-05-09T02:26:55.469Z,83.00
2024-05-09T02:27:55.485Z,84.90
2024-05-09T02:28:55.485Z,81.80
2024-05-09T02:29:55.463Z,80.00
2024-05-09T02:30:55.472Z,77.80
2024-05-09T02:31:55.573Z,76.70
2024-05-09T02:32:55.471Z,77.50
2024-05-09T02:33:55.777Z,76.40
2024-05-09T02:34:55.425Z,78.20
2024-05-09T02:35:55.350Z,79.90
2024-05-09T02:36:55.340Z,80.40
2024-05-09T02:37:55.313Z,81.30
2024-05-09T02:38:55.320Z,79.30
2024-05-09T02:39:55.319Z,80.00
2024-05-09T02:40:55.321Z,81.80
2024-05-09T02:41:55.293Z,81.10
2024-05-09T02:42:55.240Z,83.40
2024-05-09T02:43:55.282Z,78.00
2024-05-09T02:44:55.283Z,77.10
2024-05-09T02:45:55.228Z,79.20
2024-05-09T02:46:55.510Z,83.00
2024-05-09T02:47:55.346Z,82.50
2024-05-09T02:48:55.364Z,84.20
2024-05-09T02:49:55.211Z,84.60
2024-05-09T02:50:55.202Z,86.80
2024-05-09T02:51:55.142Z,88.90
2024-05-09T02:52:55.201Z,90.20
2024-05-09T02:53:55.200Z,87.10
2024-05-09T02:54:55.083Z,91.30
2024-05-09T02:55:55.197Z,89.40
2024-05-09T02:56:55.074Z,87.30
2024-05-09T02:57:55.078Z,85.60
2024-05-09T02:58:55.063Z,88.80
2024-05-09T02:59:55.128Z,88.80
2024-05-09T03:00:55.050Z,90.10
2024-05-09T03:01:55.089Z,89.90
2024-05-09T03:02:55.137Z,91.60
2024-05-09T03:03:55.167Z,87.50
2024-05-09T03:04:55.038Z,91.60
2024-05-09T03:05:54.995Z,87.00
2024-05-09T03:06:55.005Z,90.00
2024-05-09T03:07:55.022Z,89.70
2024-05-09T03:08:54.898Z,91.10
2024-05-09T03:09:54.901Z,93.60
2024-05-09T03:10:54.916Z,94.90
2024-05-09T03:11:55.053Z,95.40
2024-05-09T03:12:54.863Z,94.50
2024-05-09T03:13:54.878Z,96.60
2024-05-09T03:14:54.850Z,99.50
2024-05-09T03:15:54.828Z,98.00
2024-05-09T03:16:54.850Z,103.50
2024-05-09T03:17:54.930Z,104.00
2024-05-09T03:18:54.883Z,103.70
2024-05-09T03:19:54.822Z,103.10
2024-05-09T03:20:54.699Z,103.40
2024-05-09T03:21:54.757Z,103.50
2024-05-09T03:22:56.765Z,105.40
2024-05-09T03:23:54.760Z,104.90
2024-05-09T03:24:54.700Z,104.20
2024-05-09T03:25:54.812Z,103.80
2024-05-09T03:26:54.646Z,104.00
2024-05-09T03:27:54.648Z,104.10
2024-05-09T03:28:54.722Z,103.30
2024-05-09T03:29:54.594Z,104.70
2024-05-09T03:30:54.598Z,105.80
2024-05-09T03:31:54.694Z,106.00
2024-05-09T03:32:54.662Z,105.30
2024-05-09T03:33:54.721Z,107.30
2024-05-09T03:34:54.557Z,107.50
2024-05-09T03:35:54.528Z,106.70
2024-05-09T03:36:54.541Z,108.40
2024-05-09T03:37:54.495Z,107.90
2024-05-09T03:38:54.505Z,111.70
2024-05-09T03:39:54.489Z,109.60
2024-05-09T03:40:54.488Z,107.80
2024-05-09T03:41:54.959Z,107.90
2024-05-09T03:42:54.409Z,106.50
2024-05-09T03:43:54.437Z,104.80
2024-05-09T03:44:54.396Z,102.10
2024-05-09T03:45:54.482Z,97.90
2024-05-09T03:46:54.399Z,90.90
2024-05-09T03:47:54.598Z,88.70
2024-05-09T03:48:54.458Z,88.70
2024-05-09T03:49:54.383Z,85.10
2024-05-09T03:50:54.370Z,80.40
2024-05-09T03:51:54.404Z,78.90
2024-05-09T03:52:54.359Z,79.90
2024-05-09T03:53:54.324Z,80.00
2024-05-09T03:54:54.271Z,79.50
2024-05-09T03:55:54.288Z,77.90
2024-05-09T03:56:54.205Z,77.90
2024-05-09T03:57:54.186Z,78.40
2024-05-09T03:58:54.264Z,79.40
2024-05-09T03:59:54.170Z,77.70
2024-05-09T04:00:54.219Z,78.70
2024-05-09T04:01:54.239Z,78.60
2024-05-09T04:02:54.276Z,77.40
2024-05-09T04:03:54.310Z,74.30
2024-05-09T04:04:54.286Z,74.60
2024-05-09T04:05:54.110Z,72.70
2024-05-09T04:06:54.080Z,76.40
2024-05-09T04:07:54.172Z,77.80
2024-05-09T04:08:54.087Z,74.20
2024-05-09T04:09:54.066Z,77.00
2024-05-09T04:10:54.111Z,75.20
2024-05-09T04:11:54.220Z,72.20
2024-05-09T04:12:54.047Z,71.40
2024-05-09T04:13:54.110Z,71.00
2024-05-09T04:14:53.978Z,70.40
2024-05-09T04:15:53.979Z,71.80
2024-05-09T04:16:53.975Z,72.20
2024-05-09T04:17:54.193Z,72.70
2024-05-09T04:18:53.983Z,72.10
2024-05-09T04:19:53.956Z,75.10
2024-05-09T04:20:53.968Z,74.40
2024-05-09T04:21:53.899Z,77.40
2024-05-09T04:22:53.933Z,80.60
2024-05-09T04:23:53.942Z,78.50
2024-05-09T04:24:53.988Z,82.20
2024-05-09T04:25:53.992Z,89.00
2024-05-09T04:26:54.114Z,85.30
2024-05-09T04:27:53.868Z,85.10
2024-05-09T04:28:53.871Z,88.00
2024-05-09T04:29:53.807Z,88.40
2024-05-09T04:30:53.808Z,87.80
2024-05-09T04:31:54.114Z,89.20
2024-05-09T04:32:53.884Z,89.30
2024-05-09T04:33:53.885Z,86.20
2024-05-09T04:34:53.739Z,87.00
2024-05-09T04:35:53.717Z,86.80
2024-05-09T04:36:53.695Z,94.60
2024-05-09T04:37:53.745Z,95.50
2024-05-09T04:38:53.648Z,94.70
2024-05-09T04:39:53.631Z,94.80
2024-05-09T04:40:53.740Z,91.90
2024-05-09T04:41:53.714Z,87.70
2024-05-09T04:42:53.600Z,91.00
2024-05-09T04:43:53.627Z,93.70
2024-05-09T04:44:56.519Z,91.30
2024-05-09T04:45:53.591Z,90.90
2024-05-09T04:46:53.581Z,91.60
2024-05-09T04:47:53.805Z,90.40
2024-05-09T04:48:54.695Z,88.40
2024-05-09T04:49:53.558Z,89.80
2024-05-09T04:50:53.553Z,87.40
2024-05-09T04:51:53.472Z,83.50
2024-05-09T04:52:53.503Z,81.70
2024-05-09T04:53:54.135Z,83.50
2024-05-09T04:55:00.098Z,86.10
2024-05-09T04:55:59.515Z,83.00
2024-05-09T04:56:59.471Z,82.80
2024-05-09T04:57:59.947Z,82.70
2024-05-09T04:58:59.693Z,84.10
2024-05-09T04:59:59.890Z,84.60
2024-05-09T05:00:59.554Z,83.30
2024-05-09T05:01:59.967Z,86.40
2024-05-09T05:02:53.709Z,82.80
2024-05-09T05:03:54.905Z,81.30
2024-05-09T05:04:53.493Z,79.60
2024-05-09T05:05:53.373Z,81.50
2024-05-09T05:06:53.287Z,83.30
2024-05-09T05:07:53.405Z,81.60
2024-05-09T05:08:53.287Z,78.00
2024-05-09T05:09:53.242Z,77.80
2024-05-09T05:10:53.387Z,73.80
2024-05-09T05:11:53.302Z,74.40
2024-05-09T05:12:53.209Z,71.70
2024-05-09T05:13:53.216Z,73.90
2024-05-09T05:14:53.211Z,75.20
2024-05-09T05:15:53.573Z,74.50
2024-05-09T05:16:53.174Z,70.10
2024-05-09T05:17:53.292Z,70.80
2024-05-09T05:18:53.334Z,70.40
2024-05-09T05:19:53.238Z,67.70
2024-05-09T05:20:53.183Z,68.20
2024-05-09T05:21:53.097Z,68.70
2024-05-09T05:22:53.125Z,66.30
2024-05-09T05:23:53.095Z,69.20
2024-05-09T05:24:53.044Z,66.80
2024-05-09T05:25:53.756Z,66.70
2024-05-09T05:26:53.294Z,66.90
2024-05-09T05:27:52.992Z,67.60
2024-05-09T05:28:53.272Z,69.30
2024-05-09T05:29:53.003Z,67.40
2024-05-09T05:30:53.017Z,66.10
2024-05-09T05:31:53.163Z,67.00
2024-05-09T05:32:53.036Z,69.40
2024-05-09T05:33:53.048Z,69.20
2024-05-09T05:34:52.991Z,71.50
2024-05-09T05:35:52.912Z,70.60
2024-05-09T05:36:52.895Z,73.90
2024-05-09T05:37:52.943Z,73.00
2024-05-09T05:38:52.892Z,73.80
2024-05-09T05:39:52.853Z,75.70
2024-05-09T05:40:52.938Z,75.40
2024-05-09T05:41:52.904Z,76.30
2024-05-09T05:42:52.801Z,77.70
2024-05-09T05:43:52.840Z,77.10
2024-05-09T05:44:52.799Z,76.90
2024-05-09T05:45:52.793Z,77.00
2024-05-09T05:46:52.809Z,77.90
2024-05-09T05:47:53.033Z,76.90
2024-05-09T05:48:52.750Z,77.70
2024-05-09T05:49:52.758Z,79.30
2024-05-09T05:50:52.767Z,83.00
2024-05-09T05:51:52.705Z,82.90
2024-05-09T05:52:52.716Z,81.10
2024-05-09T05:53:52.687Z,78.40
2024-05-09T05:54:52.703Z,80.60
2024-05-09T05:55:52.709Z,83.20
2024-05-09T05:56:52.727Z,84.50
2024-05-09T05:57:52.603Z,84.20
2024-05-09T05:58:52.655Z,85.70
2024-05-09T05:59:52.617Z,82.10
2024-05-09T06:00:52.658Z,81.60
2024-05-09T06:01:52.568Z,82.10
2024-05-09T06:02:52.756Z,84.70
2024-05-09T06:03:52.693Z,85.00
2024-05-09T06:04:52.723Z,83.40
2024-05-09T06:05:52.640Z,80.90
2024-05-09T06:06:52.507Z,79.40
2024-05-09T06:07:52.571Z,78.00
2024-05-09T06:08:52.664Z,75.10
2024-05-09T06:09:52.466Z,73.10
2024-05-09T06:10:52.984Z,71.70
2024-05-09T06:11:52.500Z,72.20
2024-05-09T06:12:52.401Z,74.20
2024-05-09T06:13:52.458Z,78.30
2024-05-09T06:14:52.393Z,79.40
2024-05-09T06:15:52.379Z,82.90
2024-05-09T06:16:54.095Z,83.30
2024-05-09T06:17:52.469Z,79.90
2024-05-09T06:18:52.524Z,81.30
2024-05-09T06:19:52.510Z,78.70
2024-05-09T06:20:52.364Z,80.90
2024-05-09T06:21:52.280Z,79.70
2024-05-09T06:22:52.397Z,77.00
2024-05-09T06:23:52.339Z,77.30
2024-05-09T06:24:52.253Z,77.20
2024-05-09T06:25:52.234Z,77.20
2024-05-09T06:26:52.216Z,75.10
2024-05-09T06:27:52.246Z,73.20
2024-05-09T06:28:52.298Z,75.60
2024-05-09T06:29:52.176Z,76.00
2024-05-09T06:30:52.173Z,76.70
2024-05-09T06:31:52.529Z,75.40
2024-05-09T06:32:52.444Z,74.30
2024-05-09T06:33:52.473Z,75.20
2024-05-09T06:34:52.232Z,73.40
2024-05-09T06:35:52.261Z,75.10
2024-05-09T06:36:52.141Z,72.40
2024-05-09T06:37:52.105Z,71.20
2024-05-09T06:38:52.063Z,71.40
2024-05-09T06:39:52.172Z,69.60
2024-05-09T06:40:52.101Z,73.00
2024-05-09T06:41:52.108Z,73.30
2024-05-09T06:42:52.011Z,70.00
2024-05-09T06:43:52.104Z,69.50
2024-05-09T06:44:52.091Z,69.30
2024-05-09T06:45:52.035Z,67.10
2024-05-09T06:46:52.091Z,65.50
2024-05-09T06:47:52.044Z,64.80
2024-05-09T06:48:52.161Z,66.40
2024-05-09T06:49:51.992Z,64.60
2024-05-09T06:50:52.208Z,63.40
2024-05-09T06:51:51.910Z,64.60
2024-05-09T06:52:51.906Z,63.40
2024-05-09T06:53:51.883Z,64.00
2024-05-09T06:54:51.876Z,68.50
2024-05-09T06:55:51.886Z,64.20
2024-05-09T06:56:51.877Z,64.70
2024-05-09T06:57:51.821Z,63.20
2024-05-09T06:58:51.941Z,64.20
2024-05-09T06:59:51.817Z,63.70
2024-05-09T07:00:51.929Z,67.00
2024-05-09T07:01:51.815Z,67.70
2024-05-09T07:02:51.872Z,64.90
2024-05-09T07:03:51.832Z,64.10
2024-05-09T07:04:51.840Z,60.40
2024-05-09T07:05:51.740Z,62.70
2024-05-09T07:06:51.692Z,59.90
2024-05-09T07:07:51.722Z,63.20
2024-05-09T07:08:52.656Z,61.30
2024-05-09T07:09:51.678Z,59.80
2024-05-09T07:10:51.796Z,61.20
2024-05-09T07:11:51.732Z,60.70
2024-05-09T07:12:51.624Z,61.40
2024-05-09T07:13:51.639Z,62.10
2024-05-09T07:14:51.678Z,61.80
2024-05-09T07:15:51.623Z,62.40
2024-05-09T07:16:51.625Z,63.20
2024-05-09T07:17:51.693Z,61.80
2024-05-09T07:18:51.774Z,63.70
2024-05-09T07:19:51.595Z,64.00
2024-05-09T07:20:51.553Z,63.90
2024-05-09T07:21:51.509Z,65.30
2024-05-09T07:22:51.572Z,66.80
2024-05-09T07:23:51.691Z,65.20
2024-05-09T07:24:51.482Z,66.50
2024-05-09T07:25:51.632Z,65.40
2024-05-09T07:26:51.458Z,63.00
2024-05-09T07:27:51.429Z,60.50
2024-05-09T07:28:51.525Z,64.90
2024-05-09T07:29:51.418Z,63.40
2024-05-09T07:30:51.619Z,64.70
2024-05-09T07:31:51.446Z,63.80
2024-05-09T07:32:51.687Z,65.90
2024-05-09T07:33:51.474Z,63.20
2024-05-09T07:34:51.407Z,64.00
2024-05-09T07:35:51.402Z,63.70
2024-05-09T07:36:51.298Z,62.70
2024-05-09T07:37:51.346Z,63.60
2024-05-09T07:38:51.360Z,61.10
2024-05-09T07:39:51.264Z,61.00
2024-05-09T07:40:51.338Z,62.20
2024-05-09T07:41:51.267Z,62.60
2024-05-09T07:42:51.319Z,64.20
2024-05-09T07:43:51.263Z,60.80
2024-05-09T07:44:51.204Z,63.70
2024-05-09T07:45:54.306Z,64.90
2024-05-09T07:47:52.334Z,66.90
2024-05-09T07:51:31.664Z,65.70
2024-05-09T07:53:37.247Z,68.40
2024-05-09T07:53:51.946Z,60.30
2024-05-09T07:54:23.369Z,58.80
2024-05-09T07:55:23.416Z,59.40
2024-05-09T07:56:24.298Z,60.40
2024-05-09T07:57:23.171Z,59.20
2024-05-09T07:58:23.143Z,60.20
2024-05-09T07:59:23.091Z,56.20
2024-05-09T08:00:29.763Z,56.10
2024-05-09T08:01:23.192Z,56.30
2024-05-09T08:02:23.266Z,57.30
2024-05-09T08:03:23.439Z,56.60
2024-05-09T08:04:25.235Z,55.40
2024-05-09T08:05:23.160Z,56.80
2024-05-09T08:06:23.011Z,58.80
2024-05-09T08:07:23.063Z,56.00
2024-05-09T08:08:22.975Z,57.10
2024-05-09T08:09:23.000Z,54.10
2024-05-09T08:10:27.459Z,54.80
2024-05-09T08:11:22.980Z,54.30
2024-05-09T08:12:22.933Z,55.10
2024-05-09T08:13:23.274Z,57.50
2024-05-09T08:14:22.940Z,54.20
2024-05-09T08:15:22.935Z,54.40
2024-05-09T08:16:23.084Z,55.70
2024-05-09T08:17:22.982Z,50.70
2024-05-09T08:18:22.971Z,51.10
2024-05-09T08:19:22.931Z,51.20
2024-05-09T08:20:30.670Z,52.40
2024-05-09T08:21:22.846Z,51.40
2024-05-09T08:22:22.786Z,52.20
2024-05-09T08:23:22.790Z,53.50
2024-05-09T08:24:22.830Z,52.50
2024-05-09T08:25:22.845Z,48.90
2024-05-09T08:26:22.743Z,48.00
2024-05-09T08:27:23.500Z,47.20
2024-05-09T08:28:22.803Z,45.60
2024-05-09T08:29:22.733Z,44.20
2024-05-09T08:30:29.781Z,43.20
2024-05-09T08:31:22.867Z,44.90
2024-05-09T08:32:22.712Z,42.50
2024-05-09T08:33:22.823Z,41.30
2024-05-09T08:34:22.874Z,41.40
2024-05-09T08:35:22.693Z,38.80
2024-05-09T08:36:22.629Z,38.40
2024-05-09T08:37:26.062Z,36.50
2024-05-09T08:38:22.645Z,35.60
2024-05-09T08:39:22.585Z,35.00
2024-05-09T08:40:30.685Z,36.40
2024-05-09T08:41:22.646Z,36.70
2024-05-09T08:42:22.635Z,36.30
2024-05-09T08:43:22.570Z,35.90
2024-05-09T08:44:22.492Z,36.90
2024-05-09T08:45:22.721Z,37.10
2024-05-09T08:46:22.555Z,39.30
2024-05-09T08:47:22.801Z,38.70
2024-05-09T08:48:22.616Z,36.10
2024-05-09T08:49:22.530Z,36.50
2024-05-09T08:50:31.983Z,33.10
2024-05-09T08:51:22.425Z,33.00
2024-05-09T08:52:22.408Z,33.00
2024-05-09T08:53:22.398Z,32.40
2024-05-09T08:54:22.427Z,32.80
2024-05-09T08:55:22.344Z,32.90
2024-05-09T08:56:22.353Z,32.90
2024-05-09T08:57:22.364Z,33.10
2024-05-09T08:58:22.393Z,32.30
2024-05-09T08:59:22.300Z,36.20
2024-05-09T09:00:33.356Z,34.10
2024-05-09T09:01:22.451Z,36.20
2024-05-09T09:02:22.512Z,36.40
2024-05-09T09:03:22.321Z,37.30
2024-05-09T09:04:22.317Z,35.70
2024-05-09T09:05:22.309Z,34.10
2024-05-09T09:06:22.270Z,32.70
2024-05-09T09:07:22.292Z,28.90
2024-05-09T09:08:22.192Z,27.40
2024-05-09T09:09:22.204Z,28.90
2024-05-09T09:10:29.593Z,29.90
2024-05-09T09:11:22.453Z,28.70
2024-05-09T09:12:22.146Z,34.80
2024-05-09T09:13:22.163Z,32.50
2024-05-09T09:14:22.111Z,32.80
2024-05-09T09:15:22.180Z,24.50
2024-05-09T09:16:22.125Z,22.30
2024-05-09T09:17:22.231Z,23.20
2024-05-09T09:18:22.143Z,25.50
2024-05-09T09:19:22.198Z,23.30
2024-05-09T09:20:28.750Z,33.40
2024-05-09T09:21:22.046Z,35.10
2024-05-09T09:22:22.062Z,35.70
2024-05-09T09:23:22.017Z,34.40
2024-05-09T09:24:22.015Z,33.30
2024-05-09T09:25:22.014Z,33.80
2024-05-09T09:26:21.943Z,33.10
2024-05-09T09:27:21.939Z,31.70
2024-05-09T09:28:22.009Z,31.20
2024-05-09T09:29:21.987Z,30.10
2024-05-09T09:30:34.056Z,29.20
2024-05-09T09:31:21.920Z,28.00
2024-05-09T09:32:22.044Z,27.90
2024-05-09T09:33:21.941Z,29.00
2024-05-09T09:34:21.949Z,28.20
2024-05-09T09:35:21.868Z,30.60
2024-05-09T09:36:21.957Z,32.00
2024-05-09T09:37:21.820Z,34.40
2024-05-09T09:38:22.402Z,34.70
2024-05-09T09:39:21.808Z,36.30
2024-05-09T09:40:22.439Z,36.00
2024-05-09T09:41:21.751Z,34.10
2024-05-09T09:42:21.729Z,36.70
2024-05-09T09:43:22.413Z,33.50
2024-05-09T09:44:21.728Z,31.80
2024-05-09T09:45:21.764Z,27.80
2024-05-09T09:46:21.724Z,27.10
2024-05-09T09:47:21.768Z,29.50
2024-05-09T09:48:22.182Z,28.50
2024-05-09T09:49:21.717Z,28.70
2024-05-09T09:50:27.878Z,30.20
2024-05-09T09:51:21.728Z,25.80
2024-05-09T09:52:21.751Z,21.00
2024-05-09T09:53:21.752Z,23.60
2024-05-09T09:54:21.600Z,26.40
2024-05-09T09:55:21.837Z,27.80
2024-05-09T09:56:21.582Z,22.90
2024-05-09T09:57:21.662Z,19.10
2024-05-09T09:58:21.643Z,14.90
2024-05-09T09:59:21.544Z,14.70
2024-05-09T10:00:27.121Z,10.60
2024-05-09T10:01:21.606Z,11.50
2024-05-09T10:02:21.683Z,15.50
2024-05-09T10:03:21.669Z,16.80
2024-05-09T10:04:21.522Z,17.40
2024-05-09T10:05:21.587Z,18.30
2024-05-09T10:06:21.500Z,23.70
2024-05-09T10:07:21.578Z,20.00
2024-05-09T10:08:21.410Z,23.40
2024-05-09T10:09:21.390Z,23.60
2024-05-09T10:10:29.854Z,27.20
2024-05-09T10:11:21.431Z,26.10
2024-05-09T10:12:21.386Z,26.50
2024-05-09T10:13:21.451Z,27.80
2024-05-09T10:14:21.375Z,27.80
2024-05-09T10:15:21.392Z,29.00
2024-05-09T10:16:21.547Z,27.70
2024-05-09T10:17:21.330Z,27.20
2024-05-09T10:18:21.377Z,27.10
2024-05-09T10:19:21.301Z,27.50
2024-05-09T10:20:25.043Z,23.60
2024-05-09T10:21:21.264Z,14.70
2024-05-09T10:22:21.280Z,11.20
2024-05-09T10:23:21.217Z,9.00
2024-05-09T10:24:21.228Z,16.90
2024-05-09T10:25:21.443Z,27.50
2024-05-09T10:26:21.170Z,27.70
2024-05-09T10:27:21.161Z,25.50
2024-05-09T10:28:21.172Z,23.10
2024-05-09T10:29:21.128Z,23.40
2024-05-09T10:30:26.002Z,22.40
2024-05-09T10:31:21.128Z,21.20
2024-05-09T10:32:21.187Z,19.70
2024-05-09T10:33:21.193Z,17.80
2024-05-09T10:34:21.251Z,13.60
2024-05-09T10:35:21.113Z,12.50
2024-05-09T10:36:21.030Z,11.50
2024-05-09T10:37:21.075Z,11.40
2024-05-09T10:38:21.021Z,12.50
2024-05-09T10:39:21.054Z,16.00
2024-05-09T10:40:26.473Z,16.80
2024-05-09T10:41:20.989Z,18.70
2024-05-09T10:42:20.961Z,17.60
2024-05-09T10:43:21.160Z,15.00
2024-05-09T10:44:20.946Z,16.40
2024-05-09T10:45:21.007Z,17.70
2024-05-09T10:46:21.216Z,19.70
2024-05-09T10:47:20.926Z,19.70
2024-05-09T10:48:21.042Z,18.00
2024-05-09T10:49:20.967Z,17.80
2024-05-09T10:50:28.090Z,16.90
2024-05-09T10:51:20.837Z,17.50
2024-05-09T10:52:20.919Z,18.00
2024-05-09T10:53:20.868Z,17.30
2024-05-09T10:54:20.847Z,16.50
2024-05-09T10:55:20.978Z,15.10
2024-05-09T10:56:20.784Z,14.70
2024-05-09T10:57:20.762Z,15.80
2024-05-09T10:58:20.784Z,15.80
2024-05-09T10:59:20.767Z,17.00
2024-05-09T11:00:27.587Z,15.30
2024-05-09T11:01:20.850Z,14.20
2024-05-09T11:02:20.980Z,15.50
2024-05-09T11:03:20.788Z,15.30
2024-05-09T11:04:20.920Z,14.60
2024-05-09T11:05:20.935Z,15.70
2024-05-09T11:06:20.653Z,16.00
2024-05-09T11:07:20.725Z,15.70
2024-05-09T11:08:20.656Z,15.80
2024-05-09T11:09:20.611Z,14.40
2024-05-09T11:10:27.430Z,16.00
2024-05-09T11:11:20.604Z,15.20
2024-05-09T11:12:21.399Z,15.90
2024-05-09T11:13:20.648Z,15.50
2024-05-09T11:14:20.554Z,15.30
2024-05-09T11:15:20.531Z,14.80
2024-05-09T11:16:26.574Z,15.30
2024-05-09T11:17:26.695Z,15.50
2024-05-09T11:18:28.161Z,15.20
2024-05-09T11:19:26.684Z,15.10
2024-05-09T11:20:29.666Z,15.00
2024-05-09T11:21:26.476Z,14.80
2024-05-09T11:22:26.511Z,14.90
2024-05-09T11:23:20.418Z,14.00
2024-05-09T11:24:26.489Z,14.70
2024-05-09T11:25:20.468Z,15.00
2024-05-09T11:26:20.546Z,14.20
2024-05-09T11:27:20.395Z,14.00
2024-05-09T11:28:20.444Z,13.60
2024-05-09T11:29:20.339Z,13.40
2024-05-09T11:30:27.018Z,13.60
2024-05-09T11:31:20.586Z,14.50
2024-05-09T11:32:20.390Z,14.70
2024-05-09T11:33:20.330Z,14.70
2024-05-09T11:34:20.384Z,14.60
2024-05-09T11:35:20.289Z,13.90
2024-05-09T11:36:20.352Z,14.40
2024-05-09T11:37:20.296Z,14.50
2024-05-09T11:38:20.223Z,14.80
2024-05-09T11:39:20.207Z,14.30
2024-05-09T11:40:25.496Z,15.10
2024-05-09T11:41:20.209Z,14.70
2024-05-09T11:42:20.233Z,14.80
2024-05-09T11:43:20.206Z,14.50
2024-05-09T11:44:20.176Z,14.20
2024-05-09T11:45:20.175Z,13.30
2024-05-09T11:46:20.315Z,13.30
2024-05-09T11:47:20.120Z,14.80
2024-05-09T11:48:20.338Z,13.60
2024-05-09T11:49:20.723Z,13.90
2024-05-09T11:50:27.127Z,15.90
2024-05-09T11:51:20.054Z,14.50
2024-05-09T11:52:20.113Z,14.70
2024-05-09T11:53:20.042Z,14.50
2024-05-09T11:54:20.027Z,15.10
2024-05-09T11:55:20.342Z,15.30
2024-05-09T11:56:20.088Z,15.10
2024-05-09T11:57:19.970Z,14.50
2024-05-09T11:58:20.025Z,15.40
2024-05-09T11:59:19.992Z,14.60
2024-05-09T12:00:29.145Z,15.70
2024-05-09T12:01:20.301Z,15.50
2024-05-09T12:02:19.938Z,16.00
2024-05-09T12:03:19.963Z,15.60
2024-05-09T12:04:20.028Z,15.90
2024-05-09T12:05:20.154Z,15.40
2024-05-09T12:06:19.880Z,14.80
2024-05-09T12:07:20.104Z,14.60
2024-05-09T12:08:19.855Z,15.60
2024-05-09T12:09:19.847Z,15.40
2024-05-09T12:10:22.671Z,15.70
2024-05-09T12:11:19.862Z,16.10
2024-05-09T12:12:19.794Z,16.00
2024-05-09T12:13:20.010Z,15.90
2024-05-09T12:14:19.775Z,15.70
2024-05-09T12:15:19.794Z,17.10
2024-05-09T12:16:20.066Z,17.40
2024-05-09T12:17:19.751Z,16.80
2024-05-09T12:18:19.758Z,16.20
2024-05-09T12:19:19.737Z,15.90
2024-05-09T12:20:28.358Z,15.50
2024-05-09T12:21:19.699Z,15.10
2024-05-09T12:22:19.735Z,17.10
2024-05-09T12:23:19.676Z,16.40
2024-05-09T12:24:19.625Z,16.60
2024-05-09T12:25:19.673Z,17.70
2024-05-09T12:26:19.593Z,17.40
2024-05-09T12:27:19.620Z,16.00
2024-05-09T12:28:19.836Z,16.50
2024-05-09T12:29:19.579Z,16.40
2024-05-09T12:30:32.181Z,17.70
2024-05-09T12:31:19.590Z,17.90
2024-05-09T12:32:19.590Z,16.70
2024-05-09T12:33:19.671Z,16.30
2024-05-09T12:34:19.558Z,17.60
2024-05-09T12:35:19.530Z,17.20
2024-05-09T12:36:20.400Z,17.50
2024-05-09T12:37:19.546Z,18.00
2024-05-09T12:38:19.677Z,17.60
2024-05-09T12:39:19.443Z,18.30
2024-05-09T12:40:26.783Z,20.00
2024-05-09T12:41:19.426Z,19.80
2024-05-09T12:42:27.031Z,19.00
2024-05-09T12:43:19.469Z,18.90
2024-05-09T12:44:19.372Z,18.70
2024-05-09T12:45:19.361Z,19.90
2024-05-09T12:46:19.466Z,19.10
2024-05-09T12:47:19.405Z,20.30
2024-05-09T12:48:19.506Z,19.60
2024-05-09T12:49:20.118Z,19.50
2024-05-09T12:50:28.789Z,18.60
2024-05-09T12:51:19.286Z,19.90
2024-05-09T12:52:19.327Z,18.80
2024-05-09T12:53:19.269Z,18.40
2024-05-09T12:54:19.281Z,19.90
2024-05-09T12:55:19.325Z,19.10